Time;durP1;ratioP1;P1;durP2;ratioP2;P2;SDS_P1;SDS_P2;PMS_P1;PMS_P2;Temp;Humidity;BMP_temperature;BMP_pressure;BME280_temperature;BME280_humidity;BME280_pressure;Samples;Min_cycle;Max_cycle;Signal;HPM_P1;HPM_P2
2022/11/27 00:00:36;;;;;;;;;18.25;13.50;;;;;7.89;73.95;101838.94;4882317;29;45342;-60
2022/11/27 00:03:01;;;;;;;;;13.00;13.00;;;;;7.90;74.20;101829.72;4899621;29;45279;-60
2022/11/27 00:05:27;;;;;;;;;13.25;13.25;;;;;7.90;74.56;101832.44;4882511;29;45433;-61
2022/11/27 00:07:52;;;;;;;;;13.75;12.25;;;;;7.90;74.33;101826.97;4882283;29;45437;-60
2022/11/27 00:10:18;;;;;;;;;12.25;11.50;;;;;7.91;73.98;101831.44;4899670;29;45571;-60
2022/11/27 00:12:43;;;;;;;;;17.00;14.75;;;;;7.94;74.73;101825.63;4899383;29;45641;-60
2022/11/27 00:15:09;;;;;;;;;17.75;14.00;;;;;7.94;73.95;101820.16;4899837;29;45362;-59
2022/11/27 00:17:34;;;;;;;;;16.75;12.50;;;;;7.71;73.84;101771.63;4899945;29;45456;-58
2022/11/27 00:20:00;;;;;;;;;16.25;16.25;;;;;7.71;74.06;101779.81;4899450;29;46432;-59
2022/11/27 00:22:26;;;;;;;;;13.00;12.00;;;;;7.93;73.96;101810.25;4898936;29;45416;-59
2022/11/27 00:24:52;;;;;;;;;14.00;11.20;;;;;7.83;73.54;101791.28;4881971;29;45516;-61
2022/11/27 00:27:17;;;;;;;;;15.00;11.00;;;;;7.86;73.36;101799.13;4867080;29;45312;-61
2022/11/27 00:29:43;;;;;;;;;17.25;14.50;;;;;7.90;73.31;101802.38;4881960;29;46101;-61
2022/11/27 00:32:08;;;;;;;;;10.50;10.50;;;;;7.86;74.07;101795.56;4899390;29;45402;-61
2022/11/27 00:34:34;;;;;;;;;12.75;12.75;;;;;7.82;74.15;101791.44;4881508;29;45397;-61
2022/11/27 00:36:59;;;;;;;;;9.25;9.25;;;;;7.82;73.96;101794.16;4882351;29;45394;-61
2022/11/27 00:39:26;;;;;;;;;11.00;11.00;;;;;7.81;73.87;101778.78;4898982;29;46362;-60
2022/11/27 00:41:52;;;;;;;;;12.00;10.80;;;;;7.82;73.89;101784.09;4898801;29;45391;-60
2022/11/27 00:44:17;;;;;;;;;11.75;10.00;;;;;7.84;73.10;101779.31;4851094;28;45605;-60
2022/11/27 00:46:43;;;;;;;;;11.50;11.00;;;;;7.87;73.60;101778.13;4880333;29;45504;-59
2022/11/27 00:49:09;;;;;;;;;16.50;12.75;;;;;7.83;73.94;101763.06;4896936;29;46350;-60
2022/11/27 00:51:35;;;;;;;;;17.60;13.00;;;;;7.84;73.17;101771.13;4882091;29;45511;-60
2022/11/27 00:54:00;;;;;;;;;10.75;8.00;;;;;7.84;73.84;101778.44;4881656;29;45357;-59
2022/11/27 00:56:31;;;;;;;;;15.50;10.75;;;;;7.76;73.99;101767.50;4882206;29;45316;-58
2022/11/27 00:58:57;;;;;;;;;12.40;9.80;;;;;7.47;73.67;101723.22;4865528;29;46454;-60
2022/11/27 01:01:31;;;;;;;;;15.75;12.00;;;;;7.65;73.44;101764.09;4898499;29;45292;-59
2022/11/27 01:03:57;;;;;;;;;11.40;10.80;;;;;7.73;73.73;101769.56;4898556;29;45384;-59
2022/11/27 01:06:23;;;;;;;;;11.00;9.20;;;;;7.75;73.87;101774.00;4898811;29;45521;-60
2022/11/27 01:08:48;;;;;;;;;11.50;11.25;;;;;7.66;74.23;101764.91;4881268;29;46576;-60
2022/11/27 01:11:15;;;;;;;;;11.50;10.50;;;;;7.67;74.12;101750.22;4881710;29;45422;-59
2022/11/27 01:13:40;;;;;;;;;10.80;9.80;;;;;7.70;73.80;101753.47;4898606;29;45280;-61
2022/11/27 01:16:11;;;;;;;;;13.75;11.50;;;;;7.13;73.98;101650.41;4881784;29;45306;-59
2022/11/27 01:18:37;;;;;;;;;6.00;6.00;;;;;7.77;73.88;101737.28;4898503;29;46202;-59
2022/11/27 01:21:03;;;;;;;;;11.00;11.00;;;;;7.72;73.49;101734.19;4898432;29;45414;-60
2022/11/27 01:23:28;;;;;;;;;19.25;11.00;;;;;7.45;73.71;101720.66;4881192;29;45464;-59
2022/11/27 01:25:54;;;;;;;;;11.00;11.00;;;;;7.68;73.79;101758.28;4898649;29;45681;-60
2022/11/27 01:28:20;;;;;;;;;16.75;12.75;;;;;7.71;74.01;101757.94;4865471;29;48328;-60
2022/11/27 01:30:46;;;;;;;;;10.80;10.20;;;;;7.49;73.67;101715.72;4898408;29;45369;-59
2022/11/27 01:33:11;;;;;;;;;12.00;10.75;;;;;7.66;74.01;101743.06;4865519;29;45340;-59
2022/11/27 01:35:37;;;;;;;;;12.25;9.75;;;;;7.60;74.30;101748.16;4881672;29;45556;-59
2022/11/27 01:38:03;;;;;;;;;14.50;13.50;;;;;7.35;74.15;101686.34;4897925;29;47047;-59
2022/11/27 01:40:28;;;;;;;;;12.00;12.00;;;;;7.70;74.02;101739.81;4898320;29;45229;-59
2022/11/27 01:42:53;;;;;;;;;14.75;10.25;;;;;7.68;73.85;101730.09;4898442;29;45304;-57
2022/11/27 01:45:20;;;;;;;;;11.50;11.00;;;;;7.69;73.64;101721.72;4857584;28;45515;-59
2022/11/27 01:47:55;;;;;;;;;10.80;7.40;;;;;7.64;73.98;101723.25;4901405;29;45435;-59
2022/11/27 01:50:35;;;;;;;;;12.00;10.20;;;;;7.39;73.47;101683.09;4884444;29;45391;-60
2022/11/27 01:53:04;;;;;;;;;13.60;10.60;;;;;7.71;74.08;101732.50;4870016;29;45400;-59
2022/11/27 01:55:33;;;;;;;;;11.80;9.20;;;;;7.68;73.78;101732.84;4885113;29;45686;-60
2022/11/27 01:58:13;;;;;;;;;12.40;8.40;;;;;7.40;74.00;101679.34;4884559;29;46869;-60
2022/11/27 02:00:39;;;;;;;;;12.40;11.40;;;;;7.72;73.99;101723.25;4901489;29;45403;-60
2022/11/27 02:03:04;;;;;;;;;16.50;10.25;;;;;7.52;73.75;101676.28;4884481;29;45387;-57
2022/11/27 02:05:30;;;;;;;;;10.75;10.75;;;;;7.71;73.46;101703.28;4868736;29;45574;-59
2022/11/27 02:07:56;;;;;;;;;9.50;8.25;;;;;7.66;74.09;101702.94;4901295;29;46387;-59
2022/11/27 02:10:32;;;;;;;;;10.20;10.00;;;;;7.42;74.16;101674.56;4868452;29;45817;-60
2022/11/27 02:13:27;;;;;;;;;17.00;14.80;;;;;7.70;73.94;101709.75;4901409;29;45342;-60
2022/11/27 02:16:17;;;;;;;;;13.40;11.00;;;;;7.74;73.72;101707.53;4877216;29;45275;-60
2022/11/27 02:18:44;;;;;;;;;14.40;11.60;;;;;7.76;73.99;101707.38;4867940;29;47261;-60
2022/11/27 02:21:28;;;;;;;;;10.40;10.40;;;;;7.78;73.56;101708.91;4884387;29;45412;-60
2022/11/27 02:23:59;;;;;;;;;6.40;4.00;;;;;7.77;73.89;101700.88;4900997;29;45443;-60
2022/11/27 02:26:35;;;;;;;;;8.00;7.60;;;;;7.74;73.70;101696.59;4901442;29;45638;-59
2022/11/27 02:29:10;;;;;;;;;11.40;9.80;;;;;7.67;72.99;101695.56;4883548;29;47303;-60
2022/11/27 02:31:37;;;;;;;;;12.00;8.40;;;;;7.64;73.56;101690.47;4884023;29;45466;-59
2022/11/27 02:34:15;;;;;;;;;10.40;9.80;;;;;7.53;73.95;101672.53;4883949;29;45367;-59
2022/11/27 02:36:45;;;;;;;;;9.60;7.80;;;;;7.52;73.33;101662.63;4869406;29;45582;-60
2022/11/27 02:39:13;;;;;;;;;12.20;8.00;;;;;7.73;73.60;101695.78;4868406;29;46602;-60
2022/11/27 02:41:51;;;;;;;;;13.00;9.60;;;;;7.72;73.72;101688.59;4868625;29;45341;-59
2022/11/27 02:44:17;;;;;;;;;11.80;9.20;;;;;7.27;73.74;101625.19;4868678;29;45421;-58
2022/11/27 02:46:42;;;;;;;;;13.25;10.75;;;;;7.72;73.37;101701.41;4868540;29;45324;-60
2022/11/27 02:49:10;;;;;;;;;11.50;9.50;;;;;7.73;74.01;101705.84;4841142;28;46684;-60
2022/11/27 02:51:38;;;;;;;;;10.40;8.20;;;;;7.72;73.53;101688.59;4881816;29;45347;-59
2022/11/27 02:54:09;;;;;;;;;13.40;10.20;;;;;7.72;73.36;101680.41;4849685;29;45422;-60
2022/11/27 02:56:34;;;;;;;;;11.20;8.00;;;;;7.73;73.92;101678.50;4849322;29;45386;-58
2022/11/27 02:59:02;;;;;;;;;7.75;7.75;;;;;7.64;73.30;101663.16;4864244;29;46059;-60
2022/11/27 03:01:30;;;;;;;;;8.60;8.00;;;;;7.53;74.34;101653.41;4834029;29;46161;-60
2022/11/27 03:03:55;;;;;;;;;8.00;7.00;;;;;7.44;74.77;101622.50;4864778;29;45392;-60
2022/11/27 03:06:27;;;;;;;;;9.75;9.75;;;;;7.55;74.23;101656.81;4849621;29;45434;-60
2022/11/27 03:09:04;;;;;;;;;11.40;9.60;;;;;7.54;74.21;101657.84;4849147;29;47625;-58
2022/11/27 03:11:30;;;;;;;;;14.00;8.80;;;;;7.57;74.20;101641.09;4849887;29;45493;-60
2022/11/27 03:13:59;;;;;;;;;8.25;8.25;;;;;7.56;73.79;101639.38;4881572;29;45370;-60
2022/11/27 03:16:37;;;;;;;;;8.00;8.00;;;;;7.62;74.22;101648.81;4865184;29;45443;-58
2022/11/27 03:19:19;;;;;;;;;11.00;7.60;;;;;7.60;74.21;101638.03;4864305;29;46044;-60
2022/11/27 03:21:47;;;;;;;;;11.20;8.00;;;;;7.60;74.38;101636.13;4881516;29;45665;-59
2022/11/27 03:24:12;;;;;;;;;13.00;9.40;;;;;7.62;74.51;101641.44;4849252;29;45416;-60
2022/11/27 03:26:38;;;;;;;;;11.75;10.00;;;;;7.62;74.20;101622.31;4865013;29;45662;-60
2022/11/27 03:29:06;;;;;;;;;11.75;11.25;;;;;7.66;73.69;101628.28;4848721;29;45575;-60
2022/11/27 03:31:32;;;;;;;;;8.40;7.40;;;;;7.13;74.25;101542.09;4849272;29;45479;-60
2022/11/27 03:33:57;;;;;;;;;11.00;11.00;;;;;7.55;74.04;101607.63;4881552;29;45351;-60
2022/11/27 03:36:23;;;;;;;;;10.50;8.50;;;;;7.65;74.67;101613.78;4881595;29;45620;-60
2022/11/27 03:38:49;;;;;;;;;7.50;6.50;;;;;7.63;74.00;101612.25;4881056;29;46761;-60
2022/11/27 03:41:45;;;;;;;;;10.40;7.00;;;;;7.58;74.04;101608.16;4864310;29;45468;-60
2022/11/27 03:44:31;;;;;;;;;7.00;7.00;;;;;7.41;74.13;101558.13;4852793;29;45391;-60
2022/11/27 03:47:10;;;;;;;;;8.00;6.40;;;;;7.63;73.98;101596.69;4863859;29;45601;-60
2022/11/27 03:50:13;;;;;;;;;12.60;8.00;;;;;7.60;74.31;101597.06;4895131;29;46633;-60
2022/11/27 03:52:43;;;;;;;;;10.20;7.00;;;;;7.60;73.72;101597.06;4872091;28;45305;-61
2022/11/27 03:55:35;;;;;;;;;8.00;8.00;;;;;7.55;74.03;101583.03;4881027;29;45518;-60
2022/11/27 03:58:07;;;;;;;;;10.60;7.80;;;;;7.17;73.96;101518.03;4866366;29;45351;-60
2022/11/27 04:00:38;;;;;;;;;11.00;6.20;;;;;7.51;74.58;101581.66;4848862;29;45865;-61
2022/11/27 04:03:04;;;;;;;;;7.60;7.60;;;;;7.59;73.95;101589.88;4848628;29;45556;-59
2022/11/27 04:05:29;;;;;;;;;12.25;11.25;;;;;7.56;74.07;101590.22;4881211;29;45433;-59
2022/11/27 04:07:55;;;;;;;;;10.75;8.25;;;;;7.49;74.23;101578.25;4863951;29;45449;-60
2022/11/27 04:10:20;;;;;;;;;11.00;9.25;;;;;7.56;74.84;101593.81;4880380;29;45625;-60
2022/11/27 04:12:46;;;;;;;;;9.25;7.50;;;;;7.59;74.41;101584.44;4880852;29;45488;-60
2022/11/27 04:15:12;;;;;;;;;13.50;9.00;;;;;7.60;74.36;101584.22;4880812;29;45405;-59
2022/11/27 04:17:37;;;;;;;;;6.00;6.00;;;;;7.53;74.29;101572.28;4880944;29;45660;-60
2022/11/27 04:20:03;;;;;;;;;7.50;7.00;;;;;7.61;74.70;101587.81;4880513;29;45717;-60
2022/11/27 04:22:28;;;;;;;;;8.40;7.80;;;;;7.65;73.90;101594.66;4880558;29;45378;-59
2022/11/27 04:24:54;;;;;;;;;6.00;5.50;;;;;7.41;74.92;101543.59;4880662;29;45414;-61
2022/11/27 04:27:20;;;;;;;;;8.00;8.00;;;;;7.69;73.85;101582.34;4880876;29;45463;-60
2022/11/27 04:29:45;;;;;;;;;12.00;12.00;;;;;7.69;74.17;101578.78;4863597;29;47263;-60
2022/11/27 04:32:11;;;;;;;;;9.00;8.00;;;;;7.62;74.55;101562.22;4880687;29;45407;-61
2022/11/27 04:34:36;;;;;;;;;11.75;7.75;;;;;7.69;74.51;101568.69;4863391;29;45323;-60
2022/11/27 04:37:02;;;;;;;;;10.75;7.50;;;;;7.69;74.52;101557.75;4881012;29;45326;-60
2022/11/27 04:39:27;;;;;;;;;11.25;8.50;;;;;7.71;74.13;101558.47;4879839;29;46062;-60
2022/11/27 04:41:53;;;;;;;;;6.25;6.25;;;;;7.65;74.33;101556.41;4880025;29;45400;-60
2022/11/27 04:44:18;;;;;;;;;10.75;8.25;;;;;7.73;74.32;101558.25;4863126;29;45452;-61
2022/11/27 04:46:43;;;;;;;;;11.00;6.75;;;;;7.63;74.35;101538.50;4880247;29;45469;-60
2022/11/27 04:49:10;;;;;;;;;11.25;7.50;;;;;7.68;74.74;101547.03;4871621;29;48601;-60
2022/11/27 04:51:35;;;;;;;;;10.40;7.00;;;;;7.40;74.50;101503.66;4898733;29;45379;-60
2022/11/27 04:54:00;;;;;;;;;9.50;8.00;;;;;7.61;75.35;101533.19;4869226;28;46004;-60
2022/11/27 04:56:26;;;;;;;;;11.50;7.75;;;;;7.45;75.03;101506.75;4882203;29;45369;-60
2022/11/27 04:58:51;;;;;;;;;11.25;8.00;;;;;7.60;74.97;101521.38;4865795;29;47123;-60
2022/11/27 05:01:17;;;;;;;;;7.00;5.25;;;;;7.62;74.39;101542.25;4866161;29;45423;-60
2022/11/27 05:03:42;;;;;;;;;7.25;7.25;;;;;7.63;74.52;101527.56;4881526;29;45296;-60
2022/11/27 05:06:08;;;;;;;;;8.75;7.25;;;;;7.64;74.56;101529.25;4882177;29;45406;-60
2022/11/27 05:08:33;;;;;;;;;10.75;8.50;;;;;7.43;74.89;101501.44;4898725;29;46375;-60
2022/11/27 05:11:10;;;;;;;;;14.00;8.75;;;;;7.59;74.40;101518.84;4898802;29;45761;-60
2022/11/27 05:13:35;;;;;;;;;15.60;11.40;;;;;7.59;74.69;101508.75;4881464;29;45454;-58
2022/11/27 05:16:01;;;;;;;;;17.75;8.25;;;;;7.51;74.43;101491.53;4866173;29;45412;-60
2022/11/27 05:18:26;;;;;;;;;8.25;6.50;;;;;7.61;74.51;101503.13;4866131;29;45338;-61
2022/11/27 05:21:03;;;;;;;;;16.25;11.75;;;;;7.32;74.91;101466.31;4897625;29;45373;-60
2022/11/27 05:23:29;;;;;;;;;8.20;7.80;;;;;7.49;74.95;101477.19;4881996;29;45434;-61
2022/11/27 05:25:55;;;;;;;;;12.00;9.00;;;;;7.59;74.48;101502.47;4898146;29;45324;-60
2022/11/27 05:28:21;;;;;;;;;12.00;10.50;;;;;7.62;74.35;101512.19;4898429;29;46061;-60
2022/11/27 05:30:46;;;;;;;;;12.00;10.50;;;;;7.58;75.30;101503.50;4898342;29;45413;-60
2022/11/27 05:33:12;;;;;;;;;9.00;8.00;;;;;7.57;74.98;101509.97;4881584;29;45493;-60
2022/11/27 05:35:37;;;;;;;;;9.75;8.00;;;;;7.55;74.95;101512.88;4898608;29;45317;-60
2022/11/27 05:38:03;;;;;;;;;5.50;5.50;;;;;7.43;74.69;101492.41;4897866;29;46928;-60
2022/11/27 05:40:28;;;;;;;;;10.00;10.00;;;;;7.50;75.08;101503.47;4898421;29;45332;-60
2022/11/27 05:42:54;;;;;;;;;11.50;8.50;;;;;7.56;74.85;101502.78;4881407;29;45381;-60
2022/11/27 05:45:19;;;;;;;;;15.25;8.00;;;;;7.56;74.61;101500.06;4898426;29;45256;-60
2022/11/27 05:47:45;;;;;;;;;10.50;8.50;;;;;7.56;74.78;101491.88;4897996;29;46826;-60
2022/11/27 05:50:11;;;;;;;;;9.00;8.00;;;;;7.53;75.37;101484.03;4898038;29;45314;-60
2022/11/27 05:52:36;;;;;;;;;10.75;8.75;;;;;7.32;74.91;101447.19;4865784;29;45443;-60
2022/11/27 05:55:02;;;;;;;;;10.00;7.00;;;;;7.59;74.83;101492.38;4898029;29;45327;-60
2022/11/27 05:57:29;;;;;;;;;10.60;9.00;;;;;7.61;75.30;101492.19;4851648;28;46752;-60
2022/11/27 05:59:55;;;;;;;;;12.20;12.20;;;;;7.60;75.25;101487.78;4880990;29;45561;-60
2022/11/27 06:02:21;;;;;;;;;6.80;6.60;;;;;7.57;75.32;101496.28;4898094;29;45520;-60
2022/11/27 06:04:46;;;;;;;;;8.00;7.00;;;;;7.62;75.07;101493.91;4898548;29;45360;-60
2022/11/27 06:07:12;;;;;;;;;13.25;12.50;;;;;7.60;75.51;101490.50;4897695;29;45475;-60
2022/11/27 06:09:37;;;;;;;;;11.75;11.75;;;;;7.64;75.17;101482.81;4898243;29;45408;-60
2022/11/27 06:12:03;;;;;;;;;10.50;10.50;;;;;7.61;75.46;101486.75;4897964;29;45305;-60
2022/11/27 06:14:33;;;;;;;;;9.50;8.50;;;;;7.61;75.64;101484.00;4881006;29;45525;-60
2022/11/27 06:17:01;;;;;;;;;11.60;10.20;;;;;7.65;75.31;101489.97;4897825;29;45907;-60
2022/11/27 06:19:27;;;;;;;;;11.00;6.80;;;;;7.67;74.67;101490.63;4864841;29;45556;-60
2022/11/27 06:21:52;;;;;;;;;8.25;7.00;;;;;7.69;74.74;101491.34;4880984;29;45369;-60
2022/11/27 06:24:18;;;;;;;;;10.25;9.50;;;;;7.66;75.02;101475.28;4880613;29;45392;-60
2022/11/27 06:26:44;;;;;;;;;10.50;9.00;;;;;7.59;75.03;101467.78;4897676;29;45560;-61
2022/11/27 06:29:09;;;;;;;;;15.75;8.25;;;;;7.67;74.99;101480.56;4880949;29;45360;-60
2022/11/27 06:31:35;;;;;;;;;10.75;8.50;;;;;7.68;74.95;101484.19;4881599;29;45377;-59
2022/11/27 06:34:00;;;;;;;;;11.00;7.00;;;;;7.44;75.32;101437.63;4901469;29;45308;-60
2022/11/27 06:36:28;;;;;;;;;9.75;7.75;;;;;7.51;75.00;101443.22;4900550;29;46393;-59
2022/11/27 06:38:53;;;;;;;;;8.20;7.40;;;;;7.59;75.52;101459.59;4901047;29;45399;-60
2022/11/27 06:41:22;;;;;;;;;9.50;7.25;;;;;7.59;75.10;101459.59;4883805;29;45584;-60
2022/11/27 06:43:48;;;;;;;;;11.80;7.80;;;;;7.59;75.08;101458.75;4901235;29;45298;-61
2022/11/27 06:46:15;;;;;;;;;13.25;10.00;;;;;7.55;75.63;101450.06;4900561;29;46058;-59
2022/11/27 06:48:41;;;;;;;;;14.80;11.00;;;;;7.57;75.20;101450.72;4868140;29;45487;-59
2022/11/27 06:51:09;;;;;;;;;7.80;7.80;;;;;7.59;74.90;101450.56;4901408;29;45462;-60
2022/11/27 06:53:35;;;;;;;;;7.40;7.40;;;;;7.57;75.52;101449.84;4868743;29;45426;-63
2022/11/27 06:56:02;;;;;;;;;12.40;11.80;;;;;7.47;75.29;101430.91;4900625;29;46619;-61
2022/11/27 06:58:27;;;;;;;;;10.00;8.20;;;;;7.49;75.38;101430.75;4877005;28;45923;-62
2022/11/27 07:01:00;;;;;;;;;15.25;12.00;;;;;7.42;75.54;101420.53;4864356;29;45395;-60
2022/11/27 07:03:25;;;;;;;;;16.00;14.80;;;;;7.55;75.75;101443.72;4868510;29;45431;-60
2022/11/27 07:05:51;;;;;;;;;11.00;10.50;;;;;7.58;75.91;101446.13;4883707;29;46500;-60
2022/11/27 07:08:16;;;;;;;;;10.00;9.00;;;;;7.59;75.95;101437.72;4883862;29;45501;-61
2022/11/27 07:10:42;;;;;;;;;7.00;4.50;;;;;7.61;75.37;101437.56;4884070;29;45357;-60
2022/11/27 07:13:07;;;;;;;;;8.00;8.00;;;;;7.31;75.83;101390.88;4901340;29;45577;-60
2022/11/27 07:15:33;;;;;;;;;13.50;11.50;;;;;7.61;75.71;101429.38;4883236;29;46680;-61
2022/11/27 07:17:58;;;;;;;;;10.00;7.50;;;;;7.62;75.92;101422.88;4884323;29;45331;-60
2022/11/27 07:20:24;;;;;;;;;8.50;7.50;;;;;7.58;75.88;101418.81;4902153;29;45456;-61
2022/11/27 07:22:49;;;;;;;;;13.50;11.00;;;;;7.53;75.96;101418.47;4902212;29;45196;-61
2022/11/27 07:25:15;;;;;;;;;12.50;8.50;;;;;7.59;76.00;101421.34;4883740;29;45832;-59
2022/11/27 07:27:41;;;;;;;;;13.75;11.25;;;;;7.62;75.84;101420.13;4851985;29;46090;-59
2022/11/27 07:30:07;;;;;;;;;11.50;11.00;;;;;7.62;75.85;101425.59;4900907;29;45399;-60
2022/11/27 07:32:32;;;;;;;;;11.20;9.60;;;;;7.64;76.11;101428.16;4883396;29;45280;-60
2022/11/27 07:34:58;;;;;;;;;13.00;11.25;;;;;7.70;76.11;101428.28;4900135;29;45769;-60
2022/11/27 07:37:23;;;;;;;;;12.75;10.75;;;;;7.60;76.14;101406.63;4900391;29;45400;-60
2022/11/27 07:39:49;;;;;;;;;11.50;11.50;;;;;7.71;76.45;101443.69;4900021;29;45462;-59
2022/11/27 07:42:14;;;;;;;;;13.75;10.75;;;;;7.44;76.25;101387.59;4883143;29;45487;-59
2022/11/27 07:44:40;;;;;;;;;10.25;8.75;;;;;7.76;76.12;101439.56;4866377;29;47457;-59
2022/11/27 07:47:05;;;;;;;;;9.00;9.00;;;;;7.75;75.93;101436.00;4882796;29;45406;-59
2022/11/27 07:49:31;;;;;;;;;12.00;9.25;;;;;7.73;76.56;101429.81;4899993;29;45345;-59
2022/11/27 07:51:56;;;;;;;;;11.25;8.00;;;;;7.73;75.65;101433.44;4900079;29;45406;-61
2022/11/27 07:54:22;;;;;;;;;11.00;8.00;;;;;7.74;76.51;101428.78;4883045;29;46218;-59
2022/11/27 07:56:47;;;;;;;;;14.00;8.50;;;;;7.70;76.37;101432.94;4882593;29;45462;-61
2022/11/27 07:59:13;;;;;;;;;15.50;11.50;;;;;7.76;76.74;101439.56;4900354;29;45404;-61
2022/11/27 08:01:38;;;;;;;;;11.50;10.50;;;;;7.76;76.92;101428.63;4899935;29;45414;-59
2022/11/27 08:04:04;;;;;;;;;12.00;11.00;;;;;7.72;76.68;101433.59;4872968;28;46547;-61
2022/11/27 08:06:29;;;;;;;;;11.00;8.00;;;;;7.81;76.36;101431.69;4883183;29;45371;-60
2022/11/27 08:08:55;;;;;;;;;16.75;13.25;;;;;7.77;76.57;101433.91;4899752;29;45399;-60
2022/11/27 08:11:31;;;;;;;;;12.50;11.50;;;;;7.86;76.88;101448.41;4867358;29;45350;-63
2022/11/27 08:14:01;;;;;;;;;10.60;10.20;;;;;7.91;76.65;101435.06;4852067;29;47613;-62
2022/11/27 08:16:27;;;;;;;;;17.20;13.40;;;;;7.94;76.70;101426.50;4900378;29;45424;-62
2022/11/27 08:18:52;;;;;;;;;14.75;14.75;;;;;7.96;76.11;101421.69;4900254;29;45375;-61
2022/11/27 08:21:18;;;;;;;;;16.25;13.50;;;;;7.93;76.04;101416.59;4882757;29;45687;-61
2022/11/27 08:23:44;;;;;;;;;10.75;8.50;;;;;7.90;76.80;101416.13;4899939;29;46240;-59
2022/11/27 08:26:09;;;;;;;;;12.75;9.50;;;;;7.93;76.78;101415.75;4882771;29;45431;-60
2022/11/27 08:28:35;;;;;;;;;11.50;10.25;;;;;7.88;76.08;101407.25;4882510;29;45338;-60
2022/11/27 08:31:01;;;;;;;;;12.50;11.00;;;;;7.94;76.72;101410.09;4882680;29;45381;-58
2022/11/27 08:33:27;;;;;;;;;10.40;8.40;;;;;7.93;76.51;101411.13;4899945;29;45276;-55
2022/11/27 08:35:53;;;;;;;;;11.50;8.00;;;;;7.60;76.23;101353.91;4882035;29;45496;-60
2022/11/27 08:38:18;;;;;;;;;15.75;13.75;;;;;7.95;76.74;101403.59;4882244;29;45461;-60
2022/11/27 08:40:44;;;;;;;;;11.75;11.50;;;;;7.95;76.31;101405.50;4899975;29;45665;-56
2022/11/27 08:43:09;;;;;;;;;13.75;12.00;;;;;7.93;76.79;101399.34;4899522;29;46440;-60
2022/11/27 08:45:38;;;;;;;;;17.00;11.00;;;;;7.15;76.45;101279.81;4889763;29;45546;-58
2022/11/27 08:48:03;;;;;;;;;15.40;11.80;;;;;7.89;76.88;101390.66;4889103;29;45503;-56
2022/11/27 08:50:29;;;;;;;;;13.75;12.50;;;;;7.89;76.68;101382.44;4898187;29;45327;-54
2022/11/27 08:52:55;;;;;;;;;12.75;9.50;;;;;7.89;76.49;101374.25;4880839;29;46508;-55
2022/11/27 08:55:21;;;;;;;;;14.60;13.40;;;;;7.92;76.70;101370.31;4879648;29;45394;-56
2022/11/27 08:57:46;;;;;;;;;12.75;12.75;;;;;7.89;76.70;101359.75;4898035;29;45414;-58
2022/11/27 09:00:12;;;;;;;;;18.00;13.75;;;;;7.97;77.25;101362.44;4885383;29;45588;-58
2022/11/27 09:02:38;;;;;;;;;14.80;11.40;;;;;8.00;76.65;101353.84;4878521;29;45492;-58
2022/11/27 09:05:04;;;;;;;;;11.50;11.50;;;;;7.97;77.41;101355.09;4831506;28;45409;-58
2022/11/27 09:07:30;;;;;;;;;16.60;12.80;;;;;7.95;76.98;101348.94;4862045;29;45428;-58
2022/11/27 09:09:55;;;;;;;;;13.00;10.75;;;;;7.94;76.75;101346.38;4879434;29;45342;-58
2022/11/27 09:12:21;;;;;;;;;9.75;9.75;;;;;7.92;76.42;101337.50;4860960;29;46372;-58
2022/11/27 09:14:46;;;;;;;;;16.75;12.50;;;;;7.93;76.72;101341.94;4878907;29;45853;-55
2022/11/27 09:17:12;;;;;;;;;12.50;12.50;;;;;7.91;76.96;101333.94;4878779;29;45834;-57
2022/11/27 09:19:37;;;;;;;;;17.50;13.25;;;;;7.94;76.67;101341.75;4879103;29;45899;-56
2022/11/27 09:22:03;;;;;;;;;15.00;12.75;;;;;7.90;76.68;101334.94;4878796;29;45628;-56
2022/11/27 09:24:28;;;;;;;;;15.25;10.25;;;;;8.02;76.11;101342.75;4877734;29;45466;-58
2022/11/27 09:26:54;;;;;;;;;10.50;9.00;;;;;7.98;76.51;101340.38;4878217;29;45424;-55
2022/11/27 09:29:20;;;;;;;;;15.75;14.50;;;;;8.02;76.32;101334.53;4862244;29;45252;-59
2022/11/27 09:31:45;;;;;;;;;11.00;11.00;;;;;8.01;76.48;101330.97;4878601;29;46892;-54
2022/11/27 09:34:11;;;;;;;;;12.25;11.50;;;;;7.96;76.35;101315.09;4846039;29;45463;-57
2022/11/27 09:36:36;;;;;;;;;13.25;11.00;;;;;8.00;76.00;101327.38;4878608;29;45389;-55
2022/11/27 09:39:02;;;;;;;;;16.25;11.50;;;;;8.01;76.28;101320.03;4880436;29;45520;-54
2022/11/27 09:41:43;;;;;;;;;12.20;11.20;;;;;8.04;76.65;101307.88;4880057;29;46520;-55
2022/11/27 09:44:31;;;;;;;;;11.00;10.60;;;;;7.86;76.27;101266.13;4880660;29;45472;-57
2022/11/27 09:46:59;;;;;;;;;13.00;11.60;;;;;7.84;76.39;101253.66;4881826;29;45425;-56
2022/11/27 09:49:26;;;;;;;;;12.40;11.40;;;;;8.07;76.72;101278.28;4863532;29;45542;-54
2022/11/27 09:52:04;;;;;;;;;17.60;11.60;;;;;7.98;75.83;101260.25;4896787;29;45506;-51
2022/11/27 09:54:34;;;;;;;;;11.00;10.40;;;;;7.85;75.59;101228.06;4864677;29;45428;-53
2022/11/27 09:57:00;;;;;;;;;15.40;11.00;;;;;8.05;76.18;101250.28;4864507;29;45433;-55
2022/11/27 09:59:44;;;;;;;;;14.00;12.50;;;;;7.91;75.99;101231.94;4880142;29;45944;-55
2022/11/27 10:02:17;;;;;;;;;12.60;11.00;;;;;8.09;76.32;101257.09;4843132;29;46656;-58
2022/11/27 10:04:43;;;;;;;;;17.60;11.20;;;;;8.22;76.04;101282.97;4858017;29;45453;-53
2022/11/27 10:07:20;;;;;;;;;14.25;11.50;;;;;8.21;76.26;101284.84;4839184;28;45398;-58
2022/11/27 10:10:00;;;;;;;;;11.80;11.80;;;;;7.91;76.03;101230.06;4847080;29;45316;-53
2022/11/27 10:12:30;;;;;;;;;12.60;12.60;;;;;8.22;75.63;101282.97;4851496;29;46077;-55
2022/11/27 10:15:16;;;;;;;;;13.00;12.40;;;;;7.44;75.55;101171.81;4881445;29;45549;-55
2022/11/27 10:17:57;;;;;;;;;14.80;12.40;;;;;8.06;75.55;101270.28;4881181;29;45418;-53
2022/11/27 10:20:29;;;;;;;;;13.80;13.20;;;;;8.30;75.09;101298.44;4881703;29;45349;-55
2022/11/27 10:23:13;;;;;;;;;12.40;12.40;;;;;8.32;75.79;101286.28;4864629;29;46647;-54
2022/11/27 10:25:49;;;;;;;;;13.80;12.60;;;;;7.97;74.89;101234.81;4884005;29;45538;-53
2022/11/27 10:28:32;;;;;;;;;11.00;10.60;;;;;8.15;75.19;101258.25;4848983;29;45414;-55
2022/11/27 10:31:09;;;;;;;;;16.00;11.80;;;;;8.12;74.93;101250.41;4864123;29;45427;-54
2022/11/27 10:33:49;;;;;;;;;16.60;13.60;;;;;8.22;75.77;101252.91;4863854;29;45441;-55
2022/11/27 10:36:24;;;;;;;;;14.20;12.40;;;;;8.22;75.48;101234.59;4880218;29;45485;-54
2022/11/27 10:38:49;;;;;;;;;11.80;10.80;;;;;8.37;75.38;101253.78;4869864;29;45550;-55
2022/11/27 10:41:22;;;;;;;;;15.00;10.75;;;;;8.37;74.93;101258.38;4883293;29;45561;-55
2022/11/27 10:43:49;;;;;;;;;13.00;12.40;;;;;8.31;74.72;101240.00;4882189;29;45767;-55
2022/11/27 10:46:19;;;;;;;;;11.25;11.25;;;;;8.37;74.73;101250.19;4899293;29;45477;-54
2022/11/27 10:48:44;;;;;;;;;15.00;12.00;;;;;8.38;75.02;101247.28;4861904;29;45483;-54
2022/11/27 10:51:27;;;;;;;;;11.75;10.50;;;;;8.19;75.18;101207.63;4894556;29;45656;-57
2022/11/27 10:53:53;;;;;;;;;13.20;10.80;;;;;8.46;74.57;101232.69;4867254;29;45803;-56
2022/11/27 10:56:41;;;;;;;;;12.00;11.50;;;;;8.48;74.68;101244.28;4899369;29;45671;-56
2022/11/27 10:59:34;;;;;;;;;18.80;9.80;;;;;8.46;73.90;101243.63;4882094;29;45367;-55
2022/11/27 11:02:02;;;;;;;;;13.20;12.60;;;;;8.49;74.38;101245.97;4880901;29;45385;-56
2022/11/27 11:04:29;;;;;;;;;23.00;17.20;;;;;8.53;74.54;101238.28;4885745;29;46149;-54
2022/11/27 11:06:54;;;;;;;;;11.40;11.40;;;;;8.21;74.22;101189.13;4883547;29;45335;-54
2022/11/27 11:09:28;;;;;;;;;13.25;13.25;;;;;8.56;74.08;101235.19;4862804;28;45445;-54
2022/11/27 11:11:54;;;;;;;;;14.20;13.80;;;;;8.46;74.00;101213.53;4872750;29;45359;-54
2022/11/27 11:14:24;;;;;;;;;9.20;8.00;;;;;8.61;73.85;101226.41;4868852;29;46598;-54
2022/11/27 11:16:50;;;;;;;;;16.60;15.20;;;;;8.70;74.31;101230.75;4866181;29;45365;-58
2022/11/27 11:19:37;;;;;;;;;16.75;15.00;;;;;8.72;74.46;101227.81;4898244;29;45337;-56
2022/11/27 11:22:04;;;;;;;;;17.80;13.40;;;;;8.46;73.76;101163.41;4898907;29;45354;-55
2022/11/27 11:24:31;;;;;;;;;17.60;14.80;;;;;8.72;73.63;101190.38;4881804;29;45522;-56
2022/11/27 11:27:13;;;;;;;;;12.60;9.60;;;;;8.64;73.30;101183.09;4862290;29;45562;-57